Time;durP1;ratioP1;P1;durP2;ratioP2;P2;SDS_P1;SDS_P2;PMS_P1;PMS_P2;Temp;Humidity;BMP_temperature;BMP_pressure;BME280_temperature;BME280_humidity;BME280_pressure;Samples;Min_cycle;Max_cycle;Signal;HPM_P1;HPM_P2
2023/10/25 00:02:22;;;;;;;0.30;0.30;;;13.30;99.90;;;;;;7394184;19;20146;-84
2023/10/25 00:04:47;;;;;;;0.68;0.68;;;13.20;99.90;;;;;;7396022;19;20483;-84
2023/10/25 00:07:13;;;;;;;0.60;0.60;;;13.30;99.90;;;;;;7392321;19;20174;-85
2023/10/25 00:09:39;;;;;;;0.45;0.43;;;13.40;99.90;;;;;;7398513;19;20131;-85
2023/10/25 00:12:05;;;;;;;0.47;0.47;;;13.50;99.90;;;;;;7393181;19;20131;-85
2023/10/25 00:14:31;;;;;;;0.67;0.67;;;13.50;99.90;;;;;;7391863;19;20139;-85
2023/10/25 00:16:59;;;;;;;0.35;0.35;;;13.50;99.90;;;;;;7394204;19;20801;-84
2023/10/25 00:19:25;;;;;;;1.15;0.70;;;13.50;99.90;;;;;;7394336;19;20236;-83
2023/10/25 00:21:50;;;;;;;0.57;0.57;;;13.40;99.90;;;;;;7393864;19;20142;-85
2023/10/25 00:24:16;;;;;;;0.55;0.55;;;13.50;99.90;;;;;;7396261;19;20162;-84
2023/10/25 00:26:42;;;;;;;0.60;0.60;;;13.40;99.90;;;;;;7395521;19;20602;-85
2023/10/25 00:29:08;;;;;;;0.60;0.50;;;13.50;99.90;;;;;;7393738;19;20134;-85
2023/10/25 00:31:34;;;;;;;1.20;0.80;;;13.50;99.90;;;;;;7392384;19;20138;-82
2023/10/25 00:34:00;;;;;;;0.43;0.43;;;13.50;99.90;;;;;;7394290;19;20233;-84
2023/10/25 00:36:26;;;;;;;0.80;0.70;;;13.50;99.90;;;;;;7394309;19;20147;-84
2023/10/25 00:38:51;;;;;;;0.50;0.50;;;13.50;99.90;;;;;;7395176;19;20134;-85
2023/10/25 00:41:17;;;;;;;0.50;0.50;;;13.00;99.90;;;;;;7394710;19;20131;-85
2023/10/25 00:43:43;;;;;;;0.40;0.40;;;13.10;99.90;;;;;;7394090;19;20229;-85
2023/10/25 00:46:19;;;;;;;0.67;0.53;;;13.40;99.90;;;;;;7394051;19;20730;-85
2023/10/25 00:48:49;;;;;;;1.35;0.80;;;13.20;99.90;;;;;;7393114;19;20131;-85
2023/10/25 00:51:18;;;;;;;0.57;0.55;;;13.30;99.90;;;;;;7391437;19;20147;-84
2023/10/25 00:53:50;;;;;;;0.85;0.57;;;13.30;99.90;;;;;;7392633;19;20143;-85
2023/10/25 00:56:17;;;;;;;0.47;0.47;;;13.40;99.90;;;;;;7393663;19;20206;-84
2023/10/25 00:58:46;;;;;;;0.77;0.65;;;13.40;99.90;;;;;;7391998;19;20184;-85
2023/10/25 01:01:15;;;;;;;0.75;0.60;;;13.50;99.90;;;;;;7391126;19;20154;-85
2023/10/25 01:03:41;;;;;;;0.50;0.50;;;13.30;99.90;;;;;;7392206;19;20150;-84
2023/10/25 01:06:07;;;;;;;1.75;0.95;;;13.00;99.90;;;;;;7390902;19;20155;-85
2023/10/25 01:08:33;;;;;;;2.50;0.63;;;13.10;99.90;;;;;;7392240;19;20568;-84
2023/10/25 01:10:58;;;;;;;0.53;0.53;;;12.90;99.90;;;;;;7389064;19;20234;-84
2023/10/25 01:13:24;;;;;;;0.70;0.70;;;13.20;99.90;;;;;;7390105;19;20123;-84
2023/10/25 01:15:50;;;;;;;1.13;0.50;;;13.20;99.90;;;;;;7392586;19;20147;-84
2023/10/25 01:18:16;;;;;;;0.50;0.50;;;13.20;99.90;;;;;;7395209;19;20483;-84
2023/10/25 01:20:43;;;;;;;0.57;0.57;;;13.20;99.90;;;;;;7399057;19;20482;-86
2023/10/25 01:23:10;;;;;;;0.77;0.63;;;13.20;99.90;;;;;;7400388;19;20661;-85
2023/10/25 01:25:37;;;;;;;0.50;0.50;;;13.20;99.90;;;;;;7400265;19;20138;-84
2023/10/25 01:28:04;;;;;;;0.53;0.53;;;13.00;99.90;;;;;;7403696;19;20135;-84
2023/10/25 01:30:30;;;;;;;0.60;0.60;;;12.90;99.90;;;;;;7399262;19;20266;-85
2023/10/25 01:32:56;;;;;;;0.43;0.43;;;13.00;99.90;;;;;;7396994;19;20162;-85
2023/10/25 01:35:21;;;;;;;0.43;0.37;;;13.10;99.90;;;;;;7399778;19;20135;-85
2023/10/25 01:37:47;;;;;;;0.70;0.70;;;13.20;99.90;;;;;;7400706;19;20146;-84
2023/10/25 01:40:15;;;;;;;1.03;0.77;;;13.30;99.90;;;;;;7399644;19;20134;-84
2023/10/25 01:42:41;;;;;;;0.60;0.60;;;13.20;99.90;;;;;;7397168;19;20138;-84
2023/10/25 01:45:07;;;;;;;0.88;0.70;;;12.80;99.90;;;;;;7395649;19;20214;-84
2023/10/25 01:47:32;;;;;;;0.70;0.70;;;12.90;99.90;;;;;;7401901;19;20134;-82
2023/10/25 01:49:58;;;;;;;0.88;0.80;;;13.00;99.90;;;;;;7398626;19;20632;-85
2023/10/25 01:52:33;;;;;;;0.73;0.73;;;13.00;99.90;;;;;;7396113;19;20146;-85
2023/10/25 01:54:58;;;;;;;1.00;1.00;;;13.10;99.90;;;;;;7399153;19;20144;-84
2023/10/25 01:57:30;;;;;;;0.65;0.65;;;13.10;99.90;;;;;;7397675;19;20580;-85
2023/10/25 01:59:56;;;;;;;0.73;0.60;;;13.10;99.90;;;;;;7398250;19;20134;-85
2023/10/25 02:02:22;;;;;;;0.68;0.68;;;13.10;99.90;;;;;;7398262;19;20150;-85
2023/10/25 02:04:48;;;;;;;1.10;0.87;;;13.10;99.90;;;;;;7397271;19;20119;-85
2023/10/25 02:07:13;;;;;;;0.73;0.70;;;13.10;99.90;;;;;;7395292;19;20170;-84
2023/10/25 02:09:39;;;;;;;0.67;0.67;;;13.00;99.90;;;;;;7398598;19;20170;-83
2023/10/25 02:12:05;;;;;;;0.70;0.70;;;13.00;99.90;;;;;;7395557;19;20143;-84
2023/10/25 02:14:34;;;;;;;1.70;1.10;;;13.00;99.90;;;;;;7396886;19;20123;-84
2023/10/25 02:17:00;;;;;;;0.60;0.60;;;13.00;99.90;;;;;;7396571;19;20134;-84
2023/10/25 02:19:25;;;;;;;0.70;0.70;;;13.00;99.90;;;;;;7398681;19;20137;-84
2023/10/25 02:21:51;;;;;;;0.97;0.90;;;13.10;99.90;;;;;;7397726;19;20206;-83
2023/10/25 02:24:17;;;;;;;0.60;0.60;;;13.10;99.90;;;;;;7397972;19;20138;-85
2023/10/25 02:26:46;;;;;;;1.70;0.97;;;13.10;99.90;;;;;;7397664;19;20137;-84
2023/10/25 02:29:12;;;;;;;0.70;0.70;;;12.60;99.90;;;;;;7398065;19;20157;-84
2023/10/25 02:31:38;;;;;;;1.10;0.90;;;12.70;99.90;;;;;;7393020;19;20150;-85
2023/10/25 02:34:04;;;;;;;1.50;1.02;;;12.70;99.90;;;;;;7398069;19;20510;-85
2023/10/25 02:36:33;;;;;;;0.70;0.70;;;12.90;99.90;;;;;;7396385;19;20175;-84
2023/10/25 02:38:59;;;;;;;0.57;0.50;;;12.70;99.90;;;;;;7397882;19;20150;-85
2023/10/25 02:41:25;;;;;;;0.53;0.53;;;12.30;99.90;;;;;;7396536;19;20146;-84
2023/10/25 02:43:51;;;;;;;0.50;0.50;;;12.30;99.90;;;;;;7397030;19;20455;-86
2023/10/25 02:46:17;;;;;;;1.02;0.93;;;12.20;99.90;;;;;;7395252;19;20134;-86
2023/10/25 02:48:43;;;;;;;0.60;0.57;;;12.20;99.90;;;;;;7396951;19;20126;-85
2023/10/25 02:51:12;;;;;;;0.80;0.80;;;12.30;99.90;;;;;;7395418;19;20155;-85
2023/10/25 02:53:38;;;;;;;0.60;0.60;;;12.30;99.90;;;;;;7395621;19;20150;-85
2023/10/25 02:56:07;;;;;;;1.17;0.93;;;12.00;99.90;;;;;;7394557;19;20134;-85
2023/10/25 02:58:33;;;;;;;0.83;0.60;;;12.00;99.90;;;;;;7397231;19;20127;-85
2023/10/25 03:01:00;;;;;;;0.50;0.50;;;11.80;99.90;;;;;;7397195;19;20365;-83
2023/10/25 03:03:34;;;;;;;0.55;0.55;;;11.70;99.90;;;;;;7398206;19;20154;-85
2023/10/25 03:05:59;;;;;;;0.40;0.40;;;11.50;99.90;;;;;;7397307;19;20495;-84
2023/10/25 03:08:27;;;;;;;0.60;0.60;;;11.60;99.90;;;;;;7395442;19;20131;-84
2023/10/25 03:10:53;;;;;;;0.95;0.85;;;12.00;99.90;;;;;;7395991;19;20134;-85
2023/10/25 03:13:19;;;;;;;0.90;0.60;;;11.70;99.90;;;;;;7396596;19;20234;-84
2023/10/25 03:15:45;;;;;;;1.30;1.17;;;11.90;99.90;;;;;;7394739;19;20127;-85
2023/10/25 03:18:10;;;;;;;0.63;0.53;;;12.10;99.90;;;;;;7395057;19;20509;-85
2023/10/25 03:20:36;;;;;;;0.77;0.73;;;12.20;99.90;;;;;;7395235;19;20167;-84
2023/10/25 03:23:02;;;;;;;0.80;0.73;;;12.30;99.90;;;;;;7395924;19;20134;-86
2023/10/25 03:25:28;;;;;;;1.05;0.80;;;12.30;99.90;;;;;;7396395;19;20142;-86
2023/10/25 03:27:54;;;;;;;0.87;0.87;;;12.30;99.90;;;;;;7395852;19;20142;-86
2023/10/25 03:30:20;;;;;;;1.10;0.90;;;12.50;99.90;;;;;;7396254;19;20127;-86
2023/10/25 03:32:45;;;;;;;2.40;1.10;;;12.50;99.90;;;;;;7393226;19;20210;-83
2023/10/25 03:35:14;;;;;;;1.40;0.97;;;12.60;99.90;;;;;;7396012;19;20142;-83
2023/10/25 03:37:40;;;;;;;0.60;0.60;;;12.30;99.90;;;;;;7395269;19;20159;-82
2023/10/25 03:40:10;;;;;;;0.80;0.80;;;12.50;99.90;;;;;;7394811;19;20131;-81
2023/10/25 03:42:36;;;;;;;0.80;0.73;;;12.60;99.90;;;;;;7394615;19;20138;-82
2023/10/25 03:45:03;;;;;;;0.70;0.70;;;12.20;99.90;;;;;;7394518;19;20243;-84
2023/10/25 03:47:30;;;;;;;0.80;0.80;;;12.20;99.90;;;;;;7395492;19;20154;-85
2023/10/25 03:49:56;;;;;;;0.80;0.70;;;12.20;99.90;;;;;;7395466;19;20146;-84
2023/10/25 03:52:22;;;;;;;1.27;0.90;;;12.40;99.90;;;;;;7393611;19;20452;-84
2023/10/25 03:54:49;;;;;;;1.48;1.38;;;12.10;99.90;;;;;;7397626;19;20198;-85
2023/10/25 03:57:14;;;;;;;2.47;1.80;;;12.10;99.90;;;;;;7393735;19;20137;-85
2023/10/25 03:59:40;;;;;;;0.70;0.70;;;12.20;99.90;;;;;;7394780;19;20230;-85
2023/10/25 04:02:06;;;;;;;0.77;0.77;;;12.40;99.90;;;;;;7396531;19;20123;-86
2023/10/25 04:04:32;;;;;;;1.27;1.17;;;12.40;99.90;;;;;;7394999;19;20580;-85
2023/10/25 04:06:57;;;;;;;0.70;0.70;;;12.20;99.90;;;;;;7392744;19;20189;-85
2023/10/25 04:09:23;;;;;;;1.13;0.80;;;12.20;99.90;;;;;;7393939;19;20162;-84
2023/10/25 04:11:49;;;;;;;0.80;0.80;;;12.00;99.90;;;;;;7392505;19;20631;-84
2023/10/25 04:14:15;;;;;;;0.80;0.60;;;12.00;99.90;;;;;;7392723;19;20138;-85
2023/10/25 04:16:41;;;;;;;1.20;0.90;;;12.10;99.90;;;;;;7392625;19;20202;-84
2023/10/25 04:19:06;;;;;;;1.20;0.87;;;12.20;99.90;;;;;;7392724;19;20522;-84
2023/10/25 04:21:32;;;;;;;1.10;1.00;;;12.20;99.90;;;;;;7392718;19;20170;-84
2023/10/25 04:23:58;;;;;;;0.70;0.70;;;12.30;99.90;;;;;;7393422;19;20150;-85
2023/10/25 04:26:24;;;;;;;0.50;0.50;;;11.90;99.90;;;;;;7393571;19;20141;-85
2023/10/25 04:28:49;;;;;;;0.85;0.70;;;11.80;99.90;;;;;;7394188;19;20134;-84
2023/10/25 04:31:17;;;;;;;0.60;0.60;;;11.90;99.90;;;;;;7393676;19;20478;-85
2023/10/25 04:33:42;;;;;;;1.07;0.90;;;12.00;99.90;;;;;;7392412;19;20297;-85
2023/10/25 04:36:09;;;;;;;0.90;0.80;;;11.90;99.90;;;;;;7391618;19;20139;-85
2023/10/25 04:38:35;;;;;;;0.57;0.57;;;12.00;99.90;;;;;;7391615;19;20131;-86
2023/10/25 04:41:00;;;;;;;1.37;0.97;;;12.00;99.90;;;;;;7393874;19;20151;-84
2023/10/25 04:43:26;;;;;;;0.80;0.70;;;12.20;99.90;;;;;;7392153;19;20148;-85
2023/10/25 04:45:52;;;;;;;1.00;1.00;;;12.30;99.90;;;;;;7390831;19;20150;-84
2023/10/25 04:48:18;;;;;;;0.80;0.80;;;12.20;99.90;;;;;;7392609;19;20141;-83
2023/10/25 04:50:44;;;;;;;1.23;0.90;;;12.30;99.90;;;;;;7392005;19;20131;-83
2023/10/25 04:53:10;;;;;;;1.10;1.00;;;12.10;99.90;;;;;;7390915;19;20247;-84
2023/10/25 04:55:36;;;;;;;0.80;0.80;;;12.20;99.90;;;;;;7400028;19;20206;-85
2023/10/25 04:58:03;;;;;;;0.60;0.60;;;11.90;99.90;;;;;;7398977;19;20131;-85
2023/10/25 05:00:29;;;;;;;0.77;0.63;;;11.70;99.90;;;;;;7399171;19;20240;-84
2023/10/25 05:02:56;;;;;;;0.90;0.90;;;11.60;99.90;;;;;;7398921;19;20150;-83
2023/10/25 05:05:22;;;;;;;0.70;0.70;;;11.60;99.90;;;;;;7398954;19;20170;-83
2023/10/25 05:07:48;;;;;;;1.00;0.90;;;11.80;99.90;;;;;;7396156;19;20196;-85
2023/10/25 05:10:14;;;;;;;0.90;0.80;;;11.90;99.90;;;;;;7398930;19;20205;-84
2023/10/25 05:12:41;;;;;;;1.17;0.90;;;11.90;99.90;;;;;;7395747;19;20158;-84
2023/10/25 05:15:09;;;;;;;0.80;0.80;;;11.70;99.90;;;;;;7399642;19;20451;-84
2023/10/25 05:17:36;;;;;;;0.83;0.70;;;11.40;99.90;;;;;;7398373;19;20161;-84
2023/10/25 05:20:05;;;;;;;1.13;0.90;;;11.50;99.90;;;;;;7398949;19;20139;-84
2023/10/25 05:22:34;;;;;;;0.83;0.83;;;11.70;99.90;;;;;;7398491;19;20137;-85
2023/10/25 05:25:05;;;;;;;1.15;1.05;;;11.90;99.90;;;;;;7398446;19;20138;-84
2023/10/25 05:27:34;;;;;;;1.10;0.90;;;12.00;99.90;;;;;;7399951;19;20506;-84
2023/10/25 05:30:03;;;;;;;1.00;0.90;;;11.60;99.90;;;;;;7398773;19;20387;-83
2023/10/25 05:32:34;;;;;;;0.75;0.75;;;11.30;99.90;;;;;;7397835;19;20150;-84
2023/10/25 05:35:02;;;;;;;1.13;1.00;;;11.00;99.90;;;;;;7400097;19;20180;-85
2023/10/25 05:37:28;;;;;;;1.53;1.00;;;11.30;99.90;;;;;;7400940;19;20155;-84
2023/10/25 05:39:55;;;;;;;1.30;1.20;;;11.30;99.90;;;;;;7398397;19;20151;-83
2023/10/25 05:42:21;;;;;;;1.40;1.30;;;11.30;99.90;;;;;;7399190;19;20155;-84
2023/10/25 05:44:53;;;;;;;0.70;0.70;;;11.40;99.90;;;;;;7398979;19;20146;-83
2023/10/25 05:47:21;;;;;;;1.27;0.93;;;11.40;99.90;;;;;;7399213;19;20139;-82
2023/10/25 05:49:47;;;;;;;1.00;0.90;;;11.40;99.90;;;;;;7398884;19;20548;-84
2023/10/25 05:52:14;;;;;;;0.87;0.80;;;11.50;99.90;;;;;;7398927;19;20210;-86
2023/10/25 05:54:40;;;;;;;1.17;0.95;;;11.50;99.90;;;;;;7397421;19;20153;-81
2023/10/25 05:57:07;;;;;;;1.10;1.00;;;11.50;99.90;;;;;;7397097;19;20143;-86
2023/10/25 05:59:33;;;;;;;1.13;0.90;;;11.50;99.90;;;;;;7399933;19;20150;-87
2023/10/25 06:02:11;;;;;;;0.80;0.80;;;11.60;99.90;;;;;;7399834;19;20167;-84
2023/10/25 06:04:42;;;;;;;0.97;0.60;;;11.40;99.90;;;;;;7399183;19;20209;-84
2023/10/25 06:07:10;;;;;;;1.20;1.10;;;11.20;99.90;;;;;;7396598;19;20529;-85
2023/10/25 06:09:37;;;;;;;1.13;1.03;;;11.30;99.90;;;;;;7398413;19;20126;-84
2023/10/25 06:12:03;;;;;;;4.53;2.57;;;11.40;99.90;;;;;;7396526;19;20141;-83
2023/10/25 06:14:30;;;;;;;4.53;3.07;;;11.60;99.90;;;;;;7397372;19;20127;-81
2023/10/25 06:16:57;;;;;;;6.17;3.83;;;11.80;99.90;;;;;;7397948;19;20138;-82
2023/10/25 06:19:23;;;;;;;1.80;1.50;;;11.80;99.90;;;;;;7397761;19;20446;-81
2023/10/25 06:21:48;;;;;;;2.83;2.13;;;11.60;99.90;;;;;;7396440;19;20148;-83
2023/10/25 06:24:14;;;;;;;1.77;1.63;;;11.50;99.90;;;;;;7398877;19;20147;-82
2023/10/25 06:26:41;;;;;;;1.27;1.17;;;11.50;99.90;;;;;;7397889;19;20659;-81
2023/10/25 06:29:08;;;;;;;1.50;1.10;;;11.60;99.90;;;;;;7397402;19;20134;-83
2023/10/25 06:31:34;;;;;;;1.67;1.23;;;12.00;99.90;;;;;;7397264;19;20146;-88
2023/10/25 06:34:03;;;;;;;1.53;1.10;;;11.70;99.90;;;;;;7399481;19;21909;-80
2023/10/25 06:36:31;;;;;;;1.97;1.63;;;11.60;99.90;;;;;;7396454;19;20608;-84
2023/10/25 06:38:58;;;;;;;3.07;1.83;;;11.90;99.90;;;;;;7396562;19;20207;-80
2023/10/25 06:41:23;;;;;;;3.40;1.20;;;11.70;99.90;;;;;;7401117;19;20138;-81
2023/10/25 06:43:50;;;;;;;2.40;1.43;;;11.80;99.90;;;;;;7397552;19;20159;-83
2023/10/25 06:46:18;;;;;;;1.97;1.40;;;11.80;99.90;;;;;;7396846;19;20135;-81
2023/10/25 06:48:44;;;;;;;1.60;1.50;;;11.80;99.90;;;;;;7396912;19;20210;-83
2023/10/25 06:51:10;;;;;;;1.93;1.40;;;11.80;99.90;;;;;;7396858;19;20165;-82
2023/10/25 06:53:37;;;;;;;1.70;1.30;;;11.80;99.90;;;;;;7394869;19;20154;-81
2023/10/25 06:56:04;;;;;;;1.65;1.40;;;12.00;99.90;;;;;;7396059;19;20143;-81
2023/10/25 06:58:33;;;;;;;3.67;1.37;;;12.20;99.90;;;;;;7396686;19;20158;-80
2023/10/25 07:01:02;;;;;;;1.40;1.00;;;11.90;99.90;;;;;;7398772;19;20127;-80
2023/10/25 07:03:34;;;;;;;2.03;1.53;;;12.10;99.90;;;;;;7398724;19;20143;-81
2023/10/25 07:06:04;;;;;;;1.43;1.33;;;12.20;99.90;;;;;;7393994;19;20178;-80
2023/10/25 07:08:31;;;;;;;2.30;1.42;;;12.40;99.90;;;;;;7393459;19;20270;-80
2023/10/25 07:10:57;;;;;;;1.43;1.33;;;12.20;99.90;;;;;;7393332;19;20134;-80
2023/10/25 07:13:30;;;;;;;1.80;1.60;;;12.40;99.90;;;;;;7395761;19;20146;-80
2023/10/25 07:15:59;;;;;;;2.17;1.43;;;12.20;99.90;;;;;;7394128;19;20166;-79
2023/10/25 07:18:25;;;;;;;2.30;1.47;;;12.50;99.90;;;;;;7392082;19;20147;-80
2023/10/25 07:20:51;;;;;;;1.87;1.57;;;12.00;99.90;;;;;;7394730;19;20135;-79
2023/10/25 07:23:17;;;;;;;2.53;1.80;;;12.30;99.90;;;;;;7395416;19;20222;-79
2023/10/25 07:25:44;;;;;;;1.80;1.40;;;12.50;99.90;;;;;;7392985;19;20190;-79
2023/10/25 07:28:10;;;;;;;1.30;1.20;;;12.60;99.90;;;;;;7394355;19;20146;-80
2023/10/25 07:30:36;;;;;;;1.40;1.30;;;12.40;99.90;;;;;;7394037;19;20135;-79
2023/10/25 07:33:02;;;;;;;0.97;0.87;;;12.30;99.90;;;;;;7391723;19;20162;-81
2023/10/25 07:35:28;;;;;;;1.20;1.10;;;12.30;99.90;;;;;;7394593;19;20138;-80
2023/10/25 07:37:54;;;;;;;1.40;1.25;;;12.50;99.90;;;;;;7394288;19;20146;-80
2023/10/25 07:40:19;;;;;;;1.87;1.63;;;12.60;99.90;;;;;;7394221;19;20137;-80
2023/10/25 07:42:46;;;;;;;0.97;0.87;;;12.70;99.90;;;;;;7393858;19;20192;-79
2023/10/25 07:45:12;;;;;;;1.33;1.23;;;12.50;99.90;;;;;;7393511;19;20150;-79
2023/10/25 07:47:38;;;;;;;2.53;1.47;;;12.80;99.90;;;;;;7392725;19;20127;-78
2023/10/25 07:50:05;;;;;;;1.70;1.10;;;13.00;99.90;;;;;;7394254;19;20141;-80
2023/10/25 07:52:33;;;;;;;2.10;1.00;;;13.00;99.90;;;;;;7391882;19;20134;-79
2023/10/25 07:54:59;;;;;;;1.67;1.20;;;13.10;99.90;;;;;;7392719;19;20180;-81
2023/10/25 07:57:29;;;;;;;2.10;1.23;;;13.10;99.90;;;;;;7392902;19;20502;-80
2023/10/25 07:59:55;;;;;;;0.80;0.80;;;13.00;99.90;;;;;;7392178;19;20131;-84
2023/10/25 08:02:21;;;;;;;1.10;0.90;;;12.70;99.90;;;;;;7394276;19;20145;-83
2023/10/25 08:04:46;;;;;;;0.73;0.73;;;12.90;99.90;;;;;;7395036;19;20170;-80
2023/10/25 08:07:12;;;;;;;1.43;1.00;;;13.20;99.90;;;;;;7391904;19;20533;-82
2023/10/25 08:09:40;;;;;;;0.70;0.70;;;12.80;99.90;;;;;;7394702;19;20531;-81
2023/10/25 08:12:06;;;;;;;1.38;1.17;;;13.10;99.90;;;;;;7393213;19;20160;-85
2023/10/25 08:14:32;;;;;;;1.30;1.20;;;13.30;99.90;;;;;;7397585;19;20202;-82
2023/10/25 08:16:58;;;;;;;1.10;1.00;;;13.40;99.90;;;;;;7394043;19;20139;-82
2023/10/25 08:19:26;;;;;;;1.10;1.00;;;13.50;99.90;;;;;;7393653;19;20603;-82
2023/10/25 08:21:52;;;;;;;1.33;1.20;;;13.60;99.90;;;;;;7396302;19;20141;-82
2023/10/25 08:24:21;;;;;;;1.20;1.10;;;13.70;99.90;;;;;;7394745;19;20134;-83
2023/10/25 08:26:47;;;;;;;1.37;1.00;;;13.80;99.90;;;;;;7399392;19;20162;-83
2023/10/25 08:29:12;;;;;;;1.25;1.10;;;13.90;99.90;;;;;;7391920;19;20126;-82
2023/10/25 08:31:46;;;;;;;0.90;0.90;;;14.00;99.90;;;;;;7392467;19;20135;-81
2023/10/25 08:34:12;;;;;;;1.17;0.88;;;14.10;99.90;;;;;;7394505;19;20756;-83
2023/10/25 08:36:38;;;;;;;1.23;1.08;;;13.90;99.90;;;;;;7392335;19;20150;-83
2023/10/25 08:39:04;;;;;;;2.25;1.33;;;14.00;99.90;;;;;;7392290;19;20155;-83
2023/10/25 08:41:30;;;;;;;1.67;1.05;;;14.00;99.90;;;;;;7393834;19;20155;-82
2023/10/25 08:43:58;;;;;;;0.80;0.80;;;14.10;99.90;;;;;;7393712;19;20134;-86
2023/10/25 08:46:29;;;;;;;1.83;1.30;;;14.10;99.90;;;;;;7393000;19;20211;-84
2023/10/25 08:48:55;;;;;;;1.10;0.90;;;14.20;99.90;;;;;;7396486;19;20172;-84
2023/10/25 08:51:22;;;;;;;1.30;0.90;;;14.20;99.90;;;;;;7396377;19;20139;-83
2023/10/25 08:53:49;;;;;;;1.38;1.27;;;14.00;99.90;;;;;;7392957;19;20146;-84
2023/10/25 08:56:15;;;;;;;1.23;1.00;;;14.00;99.90;;;;;;7393728;19;20218;-82
2023/10/25 08:58:41;;;;;;;1.40;0.95;;;13.90;99.90;;;;;;7392932;19;20143;-87
2023/10/25 09:01:14;;;;;;;1.80;1.10;;;14.00;99.90;;;;;;7393739;19;20135;-83
2023/10/25 09:03:41;;;;;;;1.75;0.95;;;14.00;99.90;;;;;;7393172;19;20170;-83
2023/10/25 09:06:09;;;;;;;1.10;1.00;;;14.00;99.90;;;;;;7388662;19;20214;-82
2023/10/25 09:08:35;;;;;;;1.63;1.17;;;13.90;99.90;;;;;;7391317;19;20172;-83
2023/10/25 09:11:07;;;;;;;3.40;1.20;;;13.90;99.90;;;;;;7390499;19;20161;-83
2023/10/25 09:13:43;;;;;;;1.35;1.13;;;14.00;99.90;;;;;;7392029;19;20138;-82
2023/10/25 09:16:16;;;;;;;2.45;1.90;;;14.00;99.90;;;;;;7393543;19;20135;-80
2023/10/25 09:18:42;;;;;;;1.25;1.15;;;14.10;99.90;;;;;;7391901;19;20214;-83
2023/10/25 09:21:10;;;;;;;2.92;1.10;;;14.20;99.90;;;;;;7391828;19;20634;-82
2023/10/25 09:23:37;;;;;;;1.25;1.15;;;14.10;99.90;;;;;;7390185;19;20147;-83
2023/10/25 09:26:15;;;;;;;1.27;1.17;;;14.10;99.90;;;;;;7390714;19;20241;-82
2023/10/25 09:28:42;;;;;;;2.38;1.50;;;14.00;99.90;;;;;;7389816;19;20153;-83
2023/10/25 09:31:24;;;;;;;1.27;1.10;;;14.10;99.90;;;;;;7392618;19;20158;-84
2023/10/25 09:33:50;;;;;;;1.10;1.00;;;14.20;99.90;;;;;;7389802;19;20227;-82
2023/10/25 09:36:20;;;;;;;1.92;1.40;;;14.10;99.90;;;;;;7389101;19;20577;-81
2023/10/25 09:38:46;;;;;;;1.30;1.20;;;14.10;99.90;;;;;;7392587;19;20159;-84
2023/10/25 09:41:14;;;;;;;1.20;1.10;;;14.10;99.90;;;;;;7395871;19;20588;-85
2023/10/25 09:43:49;;;;;;;1.25;1.00;;;14.10;99.90;;;;;;7399981;19;20588;-85
2023/10/25 09:46:17;;;;;;;1.45;1.10;;;14.20;99.90;;;;;;7399638;19;20134;-87
2023/10/25 09:49:13;;;;;;;0.77;0.77;;;14.20;99.90;;;;;;7399054;19;20138;-82
2023/10/25 09:51:48;;;;;;;1.85;1.20;;;14.10;99.90;;;;;;7396484;19;20178;-83
2023/10/25 09:54:17;;;;;;;1.10;1.00;;;14.10;99.90;;;;;;7399803;19;20143;-85
2023/10/25 09:56:47;;;;;;;0.85;0.80;;;14.20;99.90;;;;;;7404747;19;20163;-87
2023/10/25 09:59:14;;;;;;;1.25;1.10;;;14.20;99.90;;;;;;7398254;19;20130;-87
2023/10/25 10:01:41;;;;;;;2.75;1.10;;;14.30;99.90;;;;;;7398468;19;20150;-85
2023/10/25 10:04:13;;;;;;;0.80;0.80;;;14.30;99.90;;;;;;7397850;19;20284;-85
2023/10/25 10:06:59;;;;;;;0.80;0.80;;;14.30;99.90;;;;;;7394436;19;20173;-84
2023/10/25 10:09:37;;;;;;;0.70;0.70;;;14.40;99.90;;;;;;7394951;19;20172;-82
2023/10/25 10:12:07;;;;;;;1.20;1.10;;;14.40;99.90;;;;;;7395682;19;20134;-84
2023/10/25 10:14:38;;;;;;;1.00;0.75;;;14.50;99.90;;;;;;7396602;19;20142;-84
2023/10/25 10:17:09;;;;;;;0.60;0.60;;;14.50;99.90;;;;;;7396237;19;20142;-85
2023/10/25 10:19:48;;;;;;;0.80;0.80;;;14.50;99.90;;;;;;7398053;19;20135;-85
2023/10/25 10:22:18;;;;;;;1.05;0.95;;;14.50;99.90;;;;;;7399493;19;20150;-84
2023/10/25 10:24:53;;;;;;;1.10;1.00;;;14.50;99.90;;;;;;7400676;19;20134;-85
2023/10/25 10:27:23;;;;;;;1.52;1.15;;;14.50;99.90;;;;;;7403189;19;20242;-83
2023/10/25 10:29:49;;;;;;;0.70;0.60;;;14.60;99.90;;;;;;7397715;19;20168;-84
2023/10/25 10:32:17;;;;;;;0.80;0.77;;;14.60;99.90;;;;;;7395633;19;20138;-85
2023/10/25 10:34:57;;;;;;;1.08;0.82;;;14.70;99.90;;;;;;7395654;19;20147;-84
2023/10/25 10:37:25;;;;;;;0.70;0.70;;;14.70;99.90;;;;;;7397117;19;20127;-84
2023/10/25 10:40:12;;;;;;;0.75;0.70;;;14.70;99.90;;;;;;7394816;19;20481;-85
2023/10/25 10:42:46;;;;;;;0.55;0.55;;;14.70;99.90;;;;;;7395752;19;20212;-83
2023/10/25 10:45:19;;;;;;;0.68;0.68;;;14.80;99.90;;;;;;7396162;19;20150;-82
2023/10/25 10:48:21;;;;;;;0.90;0.80;;;14.80;99.90;;;;;;7398945;19;20227;-83
2023/10/25 10:50:49;;;;;;;1.85;1.40;;;14.90;99.90;;;;;;7397006;19;20153;-84
2023/10/25 10:53:15;;;;;;;2.38;1.80;;;14.90;99.90;;;;;;7390988;19;20517;-83
2023/10/25 10:55:41;;;;;;;2.55;1.67;;;15.00;99.90;;;;;;7392993;19;20131;-82
2023/10/25 10:58:07;;;;;;;5.50;3.40;;;15.10;99.90;;;;;;7395607;19;20145;-82
2023/10/25 11:00:33;;;;;;;2.95;2.20;;;15.20;99.90;;;;;;7395752;19;20127;-83
2023/10/25 11:03:04;;;;;;;1.17;0.90;;;15.20;99.90;;;;;;7403618;19;20241;-83
2023/10/25 11:05:31;;;;;;;0.95;0.90;;;15.30;99.90;;;;;;7396621;19;20174;-83
2023/10/25 11:07:57;;;;;;;0.80;0.70;;;15.00;99.90;;;;;;7393498;19;20162;-83
2023/10/25 11:10:23;;;;;;;0.52;0.52;;;15.10;99.90;;;;;;7394298;19;20220;-81
2023/10/25 11:12:49;;;;;;;1.17;1.00;;;15.20;99.90;;;;;;7391562;19;20151;-79
2023/10/25 11:15:16;;;;;;;1.02;0.60;;;15.30;99.90;;;;;;7393452;19;20211;-79
2023/10/25 11:17:43;;;;;;;1.55;1.05;;;15.30;99.90;;;;;;7395655;19;20162;-79
2023/10/25 11:20:09;;;;;;;0.47;0.47;;;15.20;99.90;;;;;;7397132;19;20138;-79
2023/10/25 11:22:36;;;;;;;0.50;0.50;;;15.30;99.90;;;;;;7395704;19;20661;-78
2023/10/25 11:25:10;;;;;;;0.50;0.50;;;15.20;99.90;;;;;;7392081;19;20134;-79
2023/10/25 11:27:37;;;;;;;0.52;0.52;;;15.20;99.90;;;;;;7393645;19;20147;-80
2023/10/25 11:30:05;;;;;;;1.10;1.00;;;15.40;99.90;;;;;;7393776;19;20525;-79
2023/10/25 11:32:36;;;;;;;0.60;0.50;;;15.60;99.90;;;;;;7393310;19;20142;-78
2023/10/25 11:35:04;;;;;;;0.70;0.70;;;15.80;99.90;;;;;;7395368;19;20139;-82
2023/10/25 11:37:45;;;;;;;0.90;0.75;;;16.00;99.90;;;;;;7396698;19;20170;-85
2023/10/25 11:40:11;;;;;;;0.77;0.55;;;16.20;99.90;;;;;;7394599;19;20209;-80
2023/10/25 11:42:37;;;;;;;0.88;0.60;;;16.30;99.90;;;;;;7393749;19;20126;-79
2023/10/25 11:45:06;;;;;;;0.93;0.60;;;16.40;99.90;;;;;;7392400;19;20150;-78
2023/10/25 11:47:32;;;;;;;0.52;0.52;;;16.40;99.90;;;;;;7393145;19;20142;-79
2023/10/25 11:50:01;;;;;;;0.50;0.50;;;16.60;99.90;;;;;;7397626;19;20147;-80
2023/10/25 11:52:28;;;;;;;0.45;0.45;;;16.50;99.90;;;;;;7396035;19;20131;-81
2023/10/25 11:54:56;;;;;;;0.20;0.20;;;16.60;99.90;;;;;;7395395;19;20127;-80
2023/10/25 11:57:27;;;;;;;0.90;0.60;;;16.60;99.90;;;;;;7392813;19;20198;-80
2023/10/25 11:59:53;;;;;;;1.23;1.00;;;16.80;99.90;;;;;;7393527;19;20514;-80
2023/10/25 12:02:20;;;;;;;1.30;0.75;;;17.10;99.90;;;;;;7395519;19;20661;-79
2023/10/25 12:04:48;;;;;;;2.60;1.35;;;17.10;99.90;;;;;;7391231;19;20214;-78
2023/10/25 12:07:14;;;;;;;3.20;1.65;;;17.10;99.90;;;;;;7389442;19;20198;-77
2023/10/25 12:09:42;;;;;;;0.40;0.40;;;17.10;99.90;;;;;;7390604;19;20560;-80
2023/10/25 12:12:10;;;;;;;1.00;0.57;;;16.80;99.90;;;;;;7390348;19;20135;-81
2023/10/25 12:14:36;;;;;;;0.40;0.35;;;16.60;99.90;;;;;;7391626;19;20158;-80
2023/10/25 12:17:03;;;;;;;0.28;0.28;;;16.60;99.90;;;;;;7392771;19;20142;-80
2023/10/25 12:19:29;;;;;;;0.50;0.40;;;16.50;99.90;;;;;;7391734;19;20142;-79
2023/10/25 12:21:57;;;;;;;0.30;0.30;;;16.40;99.90;;;;;;7390881;19;20142;-81
2023/10/25 12:24:25;;;;;;;0.47;0.40;;;16.40;99.90;;;;;;7390295;19;20130;-81
2023/10/25 12:26:56;;;;;;;0.28;0.28;;;16.30;99.90;;;;;;7390299;19;20199;-80
2023/10/25 12:29:24;;;;;;;0.50;0.50;;;16.30;99.90;;;;;;7390307;19;20137;-79
2023/10/25 12:31:50;;;;;;;0.93;0.57;;;16.20;99.90;;;;;;7390763;19;20126;-82
2023/10/25 12:34:16;;;;;;;0.30;0.30;;;16.30;99.90;;;;;;7389671;19;20131;-81
2023/10/25 12:36:42;;;;;;;0.90;0.45;;;16.30;99.90;;;;;;7390924;19;20141;-80
2023/10/25 12:39:08;;;;;;;0.40;0.40;;;16.50;99.90;;;;;;7391180;19;20131;-80
2023/10/25 12:41:34;;;;;;;0.30;0.30;;;16.60;99.90;;;;;;7390693;19;20159;-82
2023/10/25 12:44:08;;;;;;;0.30;0.30;;;16.80;99.90;;;;;;7390607;19;20134;-81
2023/10/25 12:46:40;;;;;;;0.47;0.40;;;16.80;99.90;;;;;;7389942;19;20138;-78
2023/10/25 12:49:13;;;;;;;0.30;0.30;;;16.80;99.90;;;;;;7392046;19;20150;-79
2023/10/25 12:51:39;;;;;;;0.30;0.30;;;16.70;99.90;;;;;;7391223;19;20453;-81